Pagrindinis puslapis
METAR-TAF:

METAR-TAF

Oro uostai :

Diego Garsija, Indijos Vandenyno Britų Sritis

platuma: 07-18S, ilguma: 072-24E, Aukštis: 1 m

Dabartinis oras

Ataskaita buvo paskelbta 46 minutes, ne 05:55 UTC
Vėjas 4 kt nuo kintamojo kryptimis
Temperatūra 32°C
Drėgmė 71%
Slėgis 1012 hPa
Matomumas 10 km arba daugiau
Mažai debesys ne aukštis 2000 ft
Mažai debesys ne aukštis 8000 ft
Išsisklaidę debesys ne aukštis 25000 ft

METAR: FJDG 100555Z VRB04KT 9999 FEW020 FEW080 SCT250 32/26 A2988 RMK SLP115 T03150270 10315 20270 50003

Laikas: 12:41 (06:41 UTC)

Prognozė

Ataskaita buvo paskelbta 5 valandos ir 41 minutes, ne 01:00 UTC
Prognozė galioja nuo 10 metu 01 UTC su 11 metu 07 UTC
Vėjas 9 kt iš Šiaurės Vakarų
Matomumas 10 km arba daugiau
Išsisklaidę debesys ne aukštis 2500 ft
Laikinai
nuo 10 metu 01 UTC su 10 metu 04 UTC
Matomumas: 8000 m
Su prošvaistėmis ne aukštis 2500 ft
lietus

TAF: FJDG 100100Z 1001/1107 31009KT 9999 SCT025 QNH2982INS TEMPO 1001/1004 8000 -SHRA BKN025 TX28/1011Z TN27/1100Z

Orai ataskaitas ir orų prognozės (METAR, TAF).

turimą stotys yra geltonos ir raudonos taškus žemėlapyje.

Perkelti pele per norėdami pamatyti stoties vardą.

Tada spustelėkite, norėdami matyti oro stebėjimo ir prognozės.

Norėdami pakeisti žemėlapį: spustelėkite ant žalios mygtukų su juodo kryžiaus žemyn,; žalią mygtuką su brūkšneliu, jei norite nutolinti; arba žalių rodyklių gretimoms žemėlapius.


METAR-TAF: